createdAt,value
2018-01-23T00:01:18.952Z,2.36
2018-01-23T00:03:46.542Z,2.58
2018-01-23T00:06:14.138Z,2.50
2018-01-23T00:08:41.810Z,2.60
2018-01-23T00:11:09.403Z,2.73
2018-01-23T00:13:37.174Z,2.64
2018-01-23T00:16:04.855Z,2.60
2018-01-23T00:18:32.386Z,2.63
2018-01-23T00:21:00.137Z,2.70
2018-01-23T00:23:27.828Z,2.77
2018-01-23T00:25:55.457Z,2.37
2018-01-23T00:28:23.061Z,2.43
2018-01-23T00:30:50.752Z,2.35
2018-01-23T00:33:18.512Z,2.61
2018-01-23T00:35:46.124Z,2.63
2018-01-23T00:38:13.762Z,2.64
2018-01-23T00:40:41.314Z,2.62
2018-01-23T00:43:08.879Z,2.59
2018-01-23T00:45:36.534Z,2.48
2018-01-23T00:48:04.783Z,2.43
2018-01-23T00:50:32.538Z,2.37
2018-01-23T00:53:00.213Z,2.30
2018-01-23T00:55:28.004Z,2.42
2018-01-23T00:57:55.788Z,2.54
2018-01-23T01:00:23.606Z,2.41
2018-01-23T01:02:51.185Z,2.46
2018-01-23T01:05:18.752Z,2.54
2018-01-23T01:07:46.422Z,2.51
2018-01-23T01:10:14.014Z,2.42
2018-01-23T01:12:41.578Z,2.46
2018-01-23T01:15:09.254Z,2.51
2018-01-23T01:17:37.006Z,2.39
2018-01-23T01:20:04.781Z,2.52
2018-01-23T01:22:32.450Z,2.36
2018-01-23T01:25:00.231Z,2.53
2018-01-23T01:27:27.771Z,2.50
2018-01-23T01:29:55.439Z,2.38
2018-01-23T01:32:23.096Z,2.01
2018-01-23T01:34:50.619Z,2.31
2018-01-23T01:37:18.149Z,2.48
2018-01-23T01:39:45.808Z,2.41
2018-01-23T01:42:13.365Z,2.46
2018-01-23T01:44:40.921Z,2.48
2018-01-23T01:47:08.616Z,2.52
2018-01-23T01:49:36.191Z,2.52
2018-01-23T01:52:03.944Z,2.44
2018-01-23T01:54:31.645Z,2.29
2018-01-23T01:56:59.193Z,2.33
2018-01-23T01:59:26.739Z,2.44
2018-01-23T02:01:54.406Z,2.13
2018-01-23T02:04:22.143Z,2.25
2018-01-23T02:06:49.697Z,2.43
2018-01-23T02:09:17.346Z,2.35
2018-01-23T02:11:45.144Z,2.58
2018-01-23T02:14:12.742Z,2.53
2018-01-23T02:16:40.407Z,2.61
2018-01-23T02:19:08.189Z,2.69
2018-01-23T02:21:35.725Z,2.48
2018-01-23T02:24:03.399Z,2.35
2018-01-23T02:26:31.062Z,2.47
2018-01-23T02:28:58.619Z,2.31
2018-01-23T02:31:26.298Z,2.52
2018-01-23T02:33:53.817Z,2.11
2018-01-23T02:36:21.379Z,2.29
2018-01-23T02:38:49.030Z,2.40
2018-01-23T02:41:16.588Z,2.16
2018-01-23T02:43:44.189Z,2.17
2018-01-23T02:46:11.853Z,2.29
2018-01-23T02:48:39.608Z,1.72
2018-01-23T02:51:07.354Z,2.15
2018-01-23T02:53:35.021Z,2.26
2018-01-23T02:56:02.593Z,2.29
2018-01-23T02:58:30.333Z,2.25
2018-01-23T03:00:58.022Z,2.28
2018-01-23T03:03:25.594Z,2.19
2018-01-23T03:05:53.130Z,2.25
2018-01-23T03:08:20.810Z,2.22
2018-01-23T03:10:48.573Z,2.04
2018-01-23T03:13:16.147Z,2.00
2018-01-23T03:15:43.956Z,2.12
2018-01-23T03:18:13.134Z,2.05
2018-01-23T03:20:40.913Z,2.20
2018-01-23T03:23:08.615Z,2.05
2018-01-23T03:25:36.194Z,1.48
2018-01-23T03:28:03.949Z,1.73
2018-01-23T03:30:31.875Z,1.67
2018-01-23T03:32:59.665Z,1.70
2018-01-23T03:35:27.251Z,1.68
2018-01-23T03:37:54.911Z,1.99
2018-01-23T03:40:22.458Z,1.92
2018-01-23T03:42:50.040Z,1.62
2018-01-23T03:45:17.969Z,1.25
2018-01-23T03:47:45.493Z,0.98
2018-01-23T03:50:13.088Z,1.54
2018-01-23T03:52:40.784Z,1.35
2018-01-23T03:55:08.321Z,1.85
2018-01-23T03:57:36.012Z,1.32
2018-01-23T04:00:06.796Z,1.01
2018-01-23T04:02:34.442Z,1.48
2018-01-23T04:05:02.228Z,1.44
2018-01-23T04:07:29.945Z,1.08
2018-01-23T04:09:57.715Z,1.23
2018-01-23T04:12:25.517Z,1.36
2018-01-23T04:14:53.796Z,1.13
2018-01-23T04:17:22.631Z,0.93
2018-01-23T04:19:50.930Z,1.01
2018-01-23T04:22:18.830Z,0.80
2018-01-23T04:24:46.779Z,0.75
2018-01-23T04:27:14.615Z,1.20
2018-01-23T04:29:42.456Z,1.12
2018-01-23T04:32:10.189Z,1.40
2018-01-23T04:34:37.793Z,1.36
2018-01-23T04:37:05.553Z,1.48
2018-01-23T04:39:33.299Z,1.37
2018-01-23T04:42:00.914Z,1.16
2018-01-23T04:44:28.530Z,1.03
2018-01-23T04:46:56.270Z,1.29
2018-01-23T04:49:24.044Z,1.70
2018-01-23T04:51:51.609Z,1.55
2018-01-23T04:54:19.362Z,1.11
2018-01-23T04:56:47.208Z,1.10
2018-01-23T04:59:14.830Z,1.17
2018-01-23T05:01:42.538Z,1.36
2018-01-23T05:04:11.672Z,1.29
2018-01-23T05:06:39.477Z,1.06
2018-01-23T05:09:07.146Z,1.24
2018-01-23T05:11:34.708Z,0.80
2018-01-23T05:14:02.251Z,1.41
2018-01-23T05:16:29.909Z,1.33
2018-01-23T05:18:57.481Z,1.37
2018-01-23T05:21:25.024Z,1.20
2018-01-23T05:23:52.699Z,1.32
2018-01-23T05:26:20.529Z,1.24
2018-01-23T05:28:48.145Z,1.15
2018-01-23T05:31:15.839Z,1.04
2018-01-23T05:33:43.363Z,1.04
2018-01-23T05:36:11.140Z,1.17
2018-01-23T05:38:38.822Z,1.05
2018-01-23T05:41:06.353Z,0.92
2018-01-23T05:43:33.932Z,0.97
2018-01-23T05:46:01.600Z,1.12
2018-01-23T05:48:29.116Z,1.03
2018-01-23T05:50:56.658Z,0.83
2018-01-23T05:53:24.381Z,0.66
2018-01-23T05:55:51.889Z,0.80
2018-01-23T05:58:19.639Z,0.61
2018-01-23T06:00:47.284Z,0.68
2018-01-23T06:03:15.102Z,0.82
2018-01-23T06:05:42.888Z,0.89
2018-01-23T06:08:10.560Z,1.09
2018-01-23T06:10:38.143Z,0.89
2018-01-23T06:13:05.682Z,1.26
2018-01-23T06:15:33.896Z,1.70
2018-01-23T06:18:01.444Z,1.89
2018-01-23T06:20:29.194Z,1.73
2018-01-23T06:22:56.921Z,2.02
2018-01-23T06:25:25.354Z,2.49
2018-01-23T06:27:53.123Z,2.06
2018-01-23T06:30:20.801Z,1.86
2018-01-23T06:32:48.412Z,3.52
2018-01-23T06:35:16.016Z,3.34
2018-01-23T06:37:43.731Z,1.57
2018-01-23T06:40:11.289Z,1.58
2018-01-23T06:42:38.850Z,1.96
2018-01-23T06:45:06.520Z,2.25
2018-01-23T06:47:34.111Z,1.69
2018-01-23T06:50:01.701Z,1.81
2018-01-23T06:52:29.912Z,1.90
2018-01-23T06:54:57.583Z,1.72
2018-01-23T06:57:25.405Z,2.63
2018-01-23T06:59:54.783Z,3.87
2018-01-23T07:02:28.087Z,2.40
2018-01-23T07:04:55.752Z,4.59
2018-01-23T07:07:23.378Z,5.85
2018-01-23T07:09:51.064Z,6.69
2018-01-23T07:12:18.628Z,5.03
2018-01-23T07:14:46.201Z,5.16
2018-01-23T07:17:13.859Z,4.42
2018-01-23T07:19:41.421Z,4.68
2018-01-23T07:22:08.938Z,3.78
2018-01-23T07:24:36.687Z,4.02
2018-01-23T07:27:04.228Z,4.37
2018-01-23T07:29:31.806Z,5.09
2018-01-23T07:31:59.550Z,5.30
2018-01-23T07:34:27.128Z,4.87
2018-01-23T07:36:54.678Z,4.70
2018-01-23T07:39:22.371Z,4.74
2018-01-23T07:41:50.145Z,4.54
2018-01-23T07:44:17.725Z,4.74
2018-01-23T07:46:46.598Z,4.45
2018-01-23T07:49:14.152Z,4.39
2018-01-23T07:51:41.750Z,3.94
2018-01-23T07:54:09.583Z,4.43
2018-01-23T07:56:37.184Z,4.22
2018-01-23T07:59:04.761Z,4.35
2018-01-23T08:01:32.442Z,4.44
2018-01-23T08:04:00.226Z,4.54
2018-01-23T08:06:28.047Z,4.59
2018-01-23T08:08:55.768Z,4.18
2018-01-23T08:11:23.313Z,4.19
2018-01-23T08:13:50.885Z,5.80
2018-01-23T08:16:18.563Z,6.26
2018-01-23T18:20:54.631Z,11.81
2018-01-23T18:23:23.703Z,11.85
2018-01-23T18:25:51.256Z,11.97
2018-01-23T18:28:18.905Z,12.02
2018-01-23T18:30:46.627Z,12.10
2018-01-23T18:33:15.943Z,12.20
2018-01-23T18:35:43.479Z,12.15
2018-01-23T18:38:11.319Z,11.42
2018-01-23T18:40:38.906Z,11.14
2018-01-23T18:43:06.455Z,11.35
2018-01-23T18:45:47.662Z,9.51
2018-01-23T18:48:15.480Z,10.86
2018-01-23T18:50:43.055Z,11.24
2018-01-23T18:53:10.735Z,11.32
2018-01-23T18:55:38.288Z,11.43
2018-01-23T18:58:05.843Z,11.46
2018-01-23T19:00:33.588Z,11.43
2018-01-23T19:03:01.119Z,11.35
2018-01-23T19:05:28.651Z,11.32
2018-01-23T19:07:56.331Z,11.42
2018-01-23T19:10:23.924Z,11.47
2018-01-23T19:12:51.453Z,11.40
2018-01-23T19:15:19.130Z,11.28
2018-01-23T19:17:46.733Z,11.39
2018-01-23T19:20:14.308Z,11.37
2018-01-23T19:22:42.224Z,11.30
2018-01-23T19:25:10.387Z,11.19
2018-01-23T19:27:38.210Z,11.15
2018-01-23T19:30:08.168Z,11.03
2018-01-23T19:32:36.768Z,11.04
2018-01-23T19:38:05.900Z,10.93
2018-01-23T19:40:36.139Z,10.88
2018-01-23T19:43:04.614Z,10.79
2018-01-23T19:45:32.525Z,10.80
2018-01-23T19:48:07.090Z,10.77
2018-01-23T19:50:34.892Z,10.73
2018-01-23T19:53:02.415Z,11.17
2018-01-23T19:55:30.107Z,11.96
2018-01-23T19:57:57.650Z,12.61
2018-01-23T20:00:25.360Z,12.35
2018-01-23T20:02:52.921Z,12.18
2018-01-23T20:05:20.708Z,12.04
2018-01-23T20:07:48.716Z,11.92
2018-01-23T20:10:16.345Z,11.81
2018-01-23T20:12:43.924Z,11.75
2018-01-23T20:15:11.643Z,11.68
2018-01-23T20:17:39.205Z,11.62
2018-01-23T20:20:06.735Z,11.55
2018-01-23T20:22:34.414Z,11.48
2018-01-23T20:25:01.982Z,11.42
2018-01-23T20:27:29.523Z,11.37
2018-01-23T20:29:57.219Z,11.32
2018-01-23T20:32:25.272Z,11.27
2018-01-23T20:34:52.889Z,11.22
2018-01-23T20:37:20.852Z,11.18
2018-01-23T20:39:48.515Z,11.14
2018-01-23T20:42:16.076Z,11.09
2018-01-23T20:44:43.602Z,11.04
2018-01-23T20:47:11.293Z,11.00
2018-01-23T20:49:38.823Z,10.95
2018-01-23T20:52:06.439Z,10.92
2018-01-23T20:54:34.102Z,10.87
2018-01-23T20:57:01.841Z,10.83
2018-01-23T20:59:30.211Z,10.80
2018-01-23T21:01:57.961Z,10.76
2018-01-23T21:04:25.476Z,10.73
2018-01-23T21:06:55.398Z,10.69
2018-01-23T21:09:23.397Z,10.65
2018-01-23T21:12:07.337Z,10.62
2018-01-23T21:14:52.992Z,10.58
2018-01-23T21:17:21.496Z,10.53
2018-01-23T21:19:49.334Z,10.51
2018-01-23T21:22:17.724Z,10.49
2018-01-23T21:24:45.330Z,10.46
2018-01-23T21:27:13.364Z,10.43
2018-01-23T21:29:41.043Z,10.40
2018-01-23T21:32:09.001Z,10.37
2018-01-23T21:34:36.611Z,10.35
2018-01-23T21:37:04.153Z,10.34
2018-01-23T21:39:59.458Z,10.31
2018-01-23T21:42:35.264Z,10.28
2018-01-23T21:52:20.160Z,10.17
2018-01-23T21:58:11.491Z,10.14
2018-01-23T22:11:26.670Z,10.05
2018-01-23T22:14:06.640Z,10.04
2018-01-23T22:16:34.565Z,10.04
2018-01-23T22:19:02.592Z,10.04
2018-01-23T22:21:30.127Z,10.04
2018-01-23T22:23:57.832Z,10.03
2018-01-23T22:54:28.378Z,9.89
2018-01-23T22:56:55.958Z,9.89
2018-01-23T22:59:23.996Z,9.90
2018-01-23T23:01:51.715Z,9.90
2018-01-23T23:04:19.307Z,9.89
2018-01-23T23:06:46.860Z,9.89
2018-01-23T23:09:14.605Z,9.88
2018-01-23T23:11:42.138Z,9.88
2018-01-23T23:14:09.727Z,9.88
2018-01-23T23:16:37.429Z,9.87
2018-01-23T23:19:05.028Z,9.87
2018-01-23T23:21:32.582Z,9.87
2018-01-23T23:24:00.400Z,9.86
2018-01-23T23:26:28.003Z,9.82
2018-01-23T23:28:55.584Z,9.85
2018-01-23T23:31:23.310Z,9.85
2018-01-23T23:33:50.943Z,9.85
2018-01-23T23:36:18.760Z,9.84
2018-01-23T23:38:46.446Z,9.84
2018-01-23T23:41:14.064Z,9.83
2018-01-23T23:43:41.660Z,9.82
2018-01-23T23:46:09.624Z,9.82
2018-01-23T23:48:37.413Z,9.82
2018-01-23T23:51:05.028Z,9.81
2018-01-23T23:53:32.718Z,9.81
2018-01-23T23:56:01.041Z,9.80
2018-01-23T23:58:28.582Z,9.80
